Time;durP1;ratioP1;P1;durP2;ratioP2;P2;SDS_P1;SDS_P2;PMS_P1;PMS_P2;Temp;Humidity;BMP_temperature;BMP_pressure;BME280_temperature;BME280_humidity;BME280_pressure;Samples;Min_cycle;Max_cycle;Signal;HPM_P1;HPM_P2
2023/04/25 00:01:46;;;;;;;7.15;3.45;;;10.70;60.30;;;;;;4940090;29;20035;-79
2023/04/25 00:04:12;;;;;;;6.32;4.28;;;10.70;60.90;;;;;;4955494;29;20012;-79
2023/04/25 00:06:39;;;;;;;6.15;4.03;;;10.70;60.30;;;;;;4959173;28;20087;-79
2023/04/25 00:09:09;;;;;;;7.47;3.92;;;10.70;60.40;;;;;;4968151;28;20031;-79
2023/04/25 00:11:36;;;;;;;3.78;3.30;;;10.70;60.40;;;;;;4960333;28;20110;-80
2023/04/25 00:14:03;;;;;;;6.03;3.88;;;10.70;60.30;;;;;;4966171;29;20078;-78
2023/04/25 00:16:33;;;;;;;9.88;4.60;;;10.60;60.10;;;;;;4981251;28;20523;-78
2023/04/25 00:18:59;;;;;;;5.93;3.83;;;10.60;60.20;;;;;;4962410;28;20043;-78
2023/04/25 00:21:25;;;;;;;9.15;3.95;;;10.60;60.20;;;;;;4956233;28;20438;-78
2023/04/25 00:23:53;;;;;;;8.68;4.35;;;10.60;60.20;;;;;;4938223;28;20023;-79
2023/04/25 00:26:20;;;;;;;6.78;3.92;;;10.60;60.20;;;;;;4960468;28;20474;-78
2023/04/25 00:28:47;;;;;;;8.27;3.95;;;10.60;60.20;;;;;;4948569;28;20035;-78
2023/04/25 00:31:13;;;;;;;7.45;3.47;;;10.60;60.20;;;;;;4946116;28;20059;-78
2023/04/25 00:33:39;;;;;;;7.97;4.13;;;10.60;60.30;;;;;;4951110;28;20027;-78
2023/04/25 00:36:06;;;;;;;9.98;3.90;;;10.60;60.20;;;;;;4952511;28;20085;-78
2023/04/25 00:38:32;;;;;;;8.02;3.90;;;10.60;60.30;;;;;;4951195;28;20070;-77
2023/04/25 00:40:58;;;;;;;7.80;3.90;;;10.60;60.30;;;;;;4956561;28;20232;-79
2023/04/25 00:43:26;;;;;;;6.25;3.92;;;10.50;60.10;;;;;;4953591;28;20037;-78
2023/04/25 00:45:53;;;;;;;6.38;4.53;;;10.50;60.10;;;;;;4959239;28;20043;-78
2023/04/25 00:48:22;;;;;;;6.85;4.13;;;10.60;60.30;;;;;;4946866;28;20411;-78
2023/04/25 00:50:57;;;;;;;8.82;3.70;;;10.50;60.10;;;;;;4952112;28;20109;-79
2023/04/25 00:53:25;;;;;;;8.32;4.20;;;10.50;60.10;;;;;;4944037;28;20031;-79
2023/04/25 00:55:51;;;;;;;9.35;4.10;;;10.50;60.10;;;;;;4959350;28;20030;-78
2023/04/25 00:58:18;;;;;;;8.45;4.85;;;10.50;60.10;;;;;;4950505;28;20047;-78
2023/04/25 01:00:46;;;;;;;6.57;4.70;;;10.50;60.10;;;;;;4940985;29;20212;-78
2023/04/25 01:03:13;;;;;;;8.98;4.18;;;10.40;60.00;;;;;;4942150;28;20042;-78
2023/04/25 01:05:41;;;;;;;6.90;4.45;;;10.40;60.00;;;;;;4954255;28;20154;-78
2023/04/25 01:08:07;;;;;;;7.47;4.43;;;10.40;60.00;;;;;;4954291;28;20042;-78
2023/04/25 01:10:33;;;;;;;5.78;4.38;;;10.40;60.10;;;;;;4958234;28;20042;-77
2023/04/25 01:12:59;;;;;;;6.03;4.20;;;10.40;60.10;;;;;;4931152;28;20063;-78
2023/04/25 01:15:25;;;;;;;7.47;4.68;;;10.40;60.10;;;;;;4956719;28;20491;-78
2023/04/25 01:17:52;;;;;;;7.97;4.38;;;10.40;60.10;;;;;;4957749;28;20054;-79
2023/04/25 01:20:22;;;;;;;6.03;3.97;;;10.40;60.20;;;;;;4953619;28;20039;-78
2023/04/25 01:22:50;;;;;;;6.32;4.30;;;10.40;60.30;;;;;;4943836;28;20723;-78
2023/04/25 01:25:16;;;;;;;7.97;5.03;;;10.40;60.20;;;;;;4932332;28;20028;-78
2023/04/25 01:27:43;;;;;;;8.15;5.13;;;10.40;60.30;;;;;;4938642;29;20479;-78
2023/04/25 01:30:10;;;;;;;9.85;4.43;;;10.40;60.30;;;;;;4948427;28;20042;-78
2023/04/25 01:32:39;;;;;;;9.77;5.10;;;10.40;60.30;;;;;;4951370;28;20413;-77
2023/04/25 01:35:11;;;;;;;6.75;4.90;;;10.40;60.40;;;;;;4942365;29;20039;-77
2023/04/25 01:37:41;;;;;;;10.48;4.70;;;10.40;60.40;;;;;;4941067;29;20032;-78
2023/04/25 01:40:12;;;;;;;8.88;5.50;;;10.40;60.40;;;;;;4943398;28;20407;-77
2023/04/25 01:42:40;;;;;;;11.60;5.35;;;10.30;60.50;;;;;;4932404;28;20517;-78
2023/04/25 01:45:07;;;;;;;8.70;5.10;;;10.40;60.50;;;;;;4951406;28;20042;-78
2023/04/25 01:47:35;;;;;;;7.22;4.38;;;10.30;60.30;;;;;;4939992;29;20055;-78
2023/04/25 01:50:02;;;;;;;7.93;4.60;;;10.30;60.80;;;;;;4926137;29;20043;-78
2023/04/25 01:52:30;;;;;;;6.05;4.63;;;10.30;60.30;;;;;;4938958;28;20035;-82
2023/04/25 01:54:59;;;;;;;6.90;5.32;;;10.30;60.30;;;;;;4949018;28;20114;-81
2023/04/25 01:57:26;;;;;;;8.00;4.93;;;10.30;60.30;;;;;;4940044;28;20103;-84
2023/04/25 02:00:01;;;;;;;8.93;4.80;;;10.30;60.30;;;;;;4927290;29;20106;-83
2023/04/25 02:02:39;;;;;;;8.30;6.03;;;10.30;60.40;;;;;;4940543;28;20095;-81
2023/04/25 02:05:08;;;;;;;7.93;4.90;;;10.30;60.30;;;;;;4937193;28;20046;-82
2023/04/25 02:07:38;;;;;;;8.38;4.60;;;10.30;60.30;;;;;;4944885;29;20046;-82
2023/04/25 02:10:04;;;;;;;9.80;5.43;;;10.30;60.30;;;;;;4944225;29;20031;-81
2023/04/25 02:12:35;;;;;;;8.95;4.85;;;10.20;60.20;;;;;;4944023;29;20406;-78
2023/04/25 02:15:02;;;;;;;6.63;5.00;;;10.20;60.20;;;;;;4947306;28;20047;-75
2023/04/25 02:17:39;;;;;;;6.53;4.57;;;10.20;60.30;;;;;;4929815;29;20051;-81
2023/04/25 02:20:05;;;;;;;7.55;4.80;;;10.20;60.30;;;;;;4945537;29;20055;-79
2023/04/25 02:22:31;;;;;;;9.90;5.13;;;10.20;60.30;;;;;;4921481;29;20048;-79
2023/04/25 02:24:57;;;;;;;9.70;4.97;;;10.20;60.90;;;;;;4938628;28;20024;-80
2023/04/25 02:27:23;;;;;;;6.97;4.60;;;10.10;60.20;;;;;;4938534;29;20043;-80
2023/04/25 02:29:50;;;;;;;9.00;5.30;;;10.10;60.20;;;;;;4929987;29;20043;-77
2023/04/25 02:32:15;;;;;;;10.10;4.95;;;10.10;60.20;;;;;;4945358;28;20869;-81
2023/04/25 02:34:41;;;;;;;5.65;4.47;;;10.10;60.30;;;;;;4945962;28;20035;-81
2023/04/25 02:37:07;;;;;;;8.93;4.68;;;10.10;60.30;;;;;;4942028;28;20031;-82
2023/04/25 02:39:33;;;;;;;11.23;5.00;;;10.10;60.30;;;;;;4947189;28;20030;-81
2023/04/25 02:42:00;;;;;;;8.15;4.80;;;10.10;60.40;;;;;;4935270;28;20156;-78
2023/04/25 02:44:29;;;;;;;8.40;4.93;;;10.00;60.20;;;;;;4934273;28;20035;-78
2023/04/25 02:46:55;;;;;;;9.45;4.82;;;10.00;60.20;;;;;;4944462;28;20585;-78
2023/04/25 02:49:23;;;;;;;7.53;4.65;;;10.00;60.30;;;;;;4939128;28;20032;-78
2023/04/25 02:51:49;;;;;;;6.95;5.05;;;10.00;60.30;;;;;;4946636;28;20039;-78
2023/04/25 02:54:15;;;;;;;8.05;4.68;;;10.00;60.30;;;;;;4949340;28;20101;-79
2023/04/25 02:56:44;;;;;;;7.13;4.20;;;9.90;60.20;;;;;;4934182;28;20092;-78
2023/04/25 02:59:15;;;;;;;10.63;4.78;;;9.90;60.20;;;;;;4947612;28;20050;-77
2023/04/25 03:01:41;;;;;;;8.13;4.70;;;9.90;60.20;;;;;;4939298;28;20051;-78
2023/04/25 03:04:07;;;;;;;7.75;4.07;;;9.90;60.30;;;;;;4948415;28;20032;-78
2023/04/25 03:06:32;;;;;;;6.07;4.45;;;9.80;60.10;;;;;;4948265;28;20182;-78
2023/04/25 03:08:58;;;;;;;9.38;5.10;;;9.90;60.30;;;;;;4947467;28;20031;-78
2023/04/25 03:11:25;;;;;;;9.57;5.47;;;9.80;60.20;;;;;;4956524;28;20031;-78
2023/04/25 03:13:51;;;;;;;8.95;4.93;;;9.80;60.80;;;;;;4953943;28;20039;-78
2023/04/25 03:16:17;;;;;;;8.35;4.82;;;9.70;60.10;;;;;;4949599;28;20027;-78
2023/04/25 03:18:43;;;;;;;5.82;4.20;;;9.70;60.10;;;;;;4946943;28;20027;-78
2023/04/25 03:21:09;;;;;;;9.25;4.47;;;9.70;60.20;;;;;;4932007;28;20108;-78
2023/04/25 03:23:35;;;;;;;9.18;4.93;;;9.60;60.10;;;;;;4936389;28;20046;-78
2023/04/25 03:26:01;;;;;;;5.57;4.20;;;9.60;60.20;;;;;;4947277;28;20035;-81
2023/04/25 03:28:27;;;;;;;7.63;4.65;;;9.60;60.30;;;;;;4944635;28;20123;-79
2023/04/25 03:30:55;;;;;;;6.25;4.38;;;9.50;60.20;;;;;;4948869;28;20039;-82
2023/04/25 03:33:21;;;;;;;5.65;4.25;;;9.50;60.20;;;;;;4958058;28;20081;-79
2023/04/25 03:35:47;;;;;;;5.90;5.00;;;9.40;60.10;;;;;;4947779;28;20042;-79
2023/04/25 03:38:13;;;;;;;6.95;4.68;;;9.40;60.20;;;;;;4948028;28;20038;-79
2023/04/25 03:40:40;;;;;;;9.32;4.68;;;9.40;60.20;;;;;;4948515;28;20106;-78
2023/04/25 03:43:22;;;;;;;7.32;3.85;;;9.40;60.30;;;;;;4947099;28;20174;-80
2023/04/25 03:45:54;;;;;;;11.18;4.97;;;9.30;60.20;;;;;;4948699;28;20039;-79
2023/04/25 03:48:24;;;;;;;9.07;4.57;;;9.30;60.30;;;;;;4953813;28;20517;-80
2023/04/25 03:50:50;;;;;;;7.53;4.63;;;9.20;60.20;;;;;;4960564;28;20039;-80
2023/04/25 03:53:16;;;;;;;6.25;4.03;;;9.20;60.30;;;;;;4957161;28;20039;-81
2023/04/25 03:56:11;;;;;;;5.78;4.35;;;9.20;60.30;;;;;;4952096;28;20142;-81
2023/04/25 03:58:39;;;;;;;5.05;3.67;;;9.10;60.20;;;;;;4946792;28;20813;-77
2023/04/25 04:01:07;;;;;;;8.85;4.45;;;9.10;60.30;;;;;;4946894;29;20694;-77
2023/04/25 04:03:35;;;;;;;6.82;4.07;;;9.00;60.10;;;;;;4962503;28;20031;-77
2023/04/25 04:06:05;;;;;;;9.85;5.00;;;9.00;60.30;;;;;;4948048;28;20142;-77
2023/04/25 04:08:34;;;;;;;7.30;3.80;;;9.00;60.30;;;;;;4946791;28;20401;-77
2023/04/25 04:11:00;;;;;;;6.10;4.45;;;8.90;60.10;;;;;;4945959;28;20027;-77
2023/04/25 04:13:27;;;;;;;7.10;3.70;;;8.90;60.20;;;;;;4946140;28;20042;-76
2023/04/25 04:15:55;;;;;;;7.75;3.83;;;8.90;60.30;;;;;;4944167;28;20023;-77
2023/04/25 04:18:21;;;;;;;5.95;3.72;;;8.80;60.10;;;;;;4947694;28;20039;-76
2023/04/25 04:20:47;;;;;;;9.93;4.15;;;8.80;60.20;;;;;;4947207;28;20114;-77
2023/04/25 04:23:14;;;;;;;6.55;3.60;;;8.80;60.30;;;;;;4938729;28;20122;-76
2023/04/25 04:25:40;;;;;;;7.97;4.95;;;8.80;60.90;;;;;;4960218;28;20643;-79
2023/04/25 04:28:28;;;;;;;9.20;5.20;;;8.80;60.40;;;;;;4940672;28;20035;-76
2023/04/25 04:31:16;;;;;;;5.47;3.78;;;8.80;60.40;;;;;;4950324;28;20114;-76
2023/04/25 04:33:42;;;;;;;7.72;3.70;;;8.70;60.30;;;;;;4953228;28;20126;-76
2023/04/25 04:36:09;;;;;;;7.80;4.38;;;8.70;60.30;;;;;;4944370;28;20612;-76
2023/04/25 04:38:36;;;;;;;6.93;3.50;;;8.70;60.30;;;;;;4939926;28;20376;-76
2023/04/25 04:41:03;;;;;;;5.00;3.05;;;8.70;60.40;;;;;;4944690;28;20035;-77
2023/04/25 04:43:36;;;;;;;5.90;3.35;;;8.60;60.20;;;;;;4959977;28;20046;-77
2023/04/25 04:46:05;;;;;;;5.90;3.22;;;8.60;60.30;;;;;;4949679;28;20043;-77
2023/04/25 04:48:50;;;;;;;4.53;2.78;;;8.60;60.30;;;;;;4939610;28;20035;-77
2023/04/25 04:51:34;;;;;;;7.38;3.65;;;8.60;60.30;;;;;;4940366;28;20035;-77
2023/04/25 04:54:30;;;;;;;7.68;2.67;;;8.60;60.30;;;;;;4936198;28;20035;-77
2023/04/25 04:57:10;;;;;;;4.55;2.65;;;8.60;60.40;;;;;;4940616;28;20047;-77
2023/04/25 05:00:00;;;;;;;7.28;2.67;;;8.60;60.40;;;;;;4941876;28;20054;-76
2023/04/25 05:02:51;;;;;;;6.13;3.00;;;8.50;60.30;;;;;;4937755;28;20061;-76
2023/04/25 05:05:31;;;;;;;7.18;2.78;;;8.50;60.30;;;;;;4940215;28;20420;-76
2023/04/25 05:08:14;;;;;;;3.72;2.63;;;8.50;60.40;;;;;;4942010;28;20114;-76
2023/04/25 05:10:50;;;;;;;5.20;2.63;;;8.50;60.40;;;;;;4934565;28;20043;-76
2023/04/25 05:13:31;;;;;;;6.47;2.60;;;8.50;60.50;;;;;;4940420;28;20604;-76
2023/04/25 05:16:35;;;;;;;4.10;2.72;;;8.50;60.50;;;;;;4936322;28;20426;-75
2023/04/25 05:19:34;;;;;;;4.22;2.45;;;8.50;60.50;;;;;;4932120;28;20574;-76
2023/04/25 05:22:20;;;;;;;4.97;2.60;;;8.50;60.50;;;;;;4908116;28;20714;-75
2023/04/25 05:25:09;;;;;;;3.72;2.38;;;8.50;60.50;;;;;;4934354;28;20570;-75
2023/04/25 05:27:50;;;;;;;6.93;3.10;;;8.50;60.50;;;;;;4934785;28;20031;-74
2023/04/25 05:30:35;;;;;;;5.63;2.47;;;8.50;60.50;;;;;;4934912;29;20138;-77
2023/04/25 05:33:09;;;;;;;5.18;2.22;;;8.50;60.60;;;;;;4933737;28;20024;-75
2023/04/25 05:35:35;;;;;;;3.45;2.50;;;8.50;60.60;;;;;;4935556;28;20597;-75
2023/04/25 05:38:01;;;;;;;4.65;2.40;;;8.50;60.60;;;;;;4937456;28;20031;-74
2023/04/25 05:40:59;;;;;;;6.80;2.42;;;8.50;60.70;;;;;;4923692;29;20301;-78
2023/04/25 05:43:51;;;;;;;6.72;2.65;;;8.60;60.80;;;;;;4940170;28;20074;-77
2023/04/25 05:46:25;;;;;;;5.18;2.65;;;8.60;60.80;;;;;;4938747;28;20414;-77
2023/04/25 05:49:05;;;;;;;6.75;2.90;;;8.60;60.80;;;;;;4923889;29;20047;-77
2023/04/25 05:51:41;;;;;;;6.45;2.45;;;8.70;61.00;;;;;;4932741;28;20032;-78
2023/04/25 05:54:27;;;;;;;8.43;2.70;;;8.70;60.90;;;;;;4931998;28;20519;-79
2023/04/25 05:56:56;;;;;;;5.68;2.95;;;8.90;61.50;;;;;;4933645;29;20109;-78
2023/04/25 05:59:22;;;;;;;4.75;2.55;;;9.10;62.20;;;;;;4932982;28;20039;-77
2023/04/25 06:01:48;;;;;;;3.85;2.42;;;9.30;62.60;;;;;;4935904;29;20101;-77
2023/04/25 06:04:15;;;;;;;5.82;2.80;;;9.60;62.90;;;;;;4936172;28;20087;-78
2023/04/25 06:06:41;;;;;;;5.20;3.10;;;9.80;62.90;;;;;;4919544;28;20044;-78
2023/04/25 06:09:07;;;;;;;5.95;2.78;;;9.90;62.70;;;;;;4929652;28;20218;-77
2023/04/25 06:11:33;;;;;;;6.80;2.78;;;10.10;62.70;;;;;;4975197;28;20258;-78
2023/04/25 06:13:59;;;;;;;4.55;2.70;;;10.30;62.80;;;;;;4963627;28;20031;-77
2023/04/25 06:16:25;;;;;;;5.60;3.05;;;10.40;62.80;;;;;;4961050;28;20039;-77
2023/04/25 06:18:52;;;;;;;4.30;2.75;;;10.60;62.90;;;;;;4981429;28;20094;-80
2023/04/25 06:21:17;;;;;;;6.00;2.70;;;10.80;63.00;;;;;;4978509;28;20059;-77
2023/04/25 06:23:43;;;;;;;5.10;3.10;;;11.00;62.90;;;;;;4949696;29;20031;-77
2023/04/25 06:26:12;;;;;;;4.43;2.95;;;11.20;62.80;;;;;;4958038;28;20047;-77
2023/04/25 06:28:41;;;;;;;5.38;3.30;;;11.40;62.70;;;;;;4937734;28;20117;-77
2023/04/25 06:31:08;;;;;;;5.22;3.10;;;11.80;63.00;;;;;;4937966;28;20032;-77
2023/04/25 06:33:35;;;;;;;5.35;3.22;;;12.10;62.90;;;;;;4936990;28;20411;-79
2023/04/25 06:36:02;;;;;;;5.20;3.13;;;12.50;63.00;;;;;;4942264;28;20038;-77
2023/04/25 06:38:28;;;;;;;8.10;3.90;;;12.80;62.70;;;;;;4935528;28;20036;-77
2023/04/25 06:40:56;;;;;;;9.40;4.35;;;13.10;62.50;;;;;;4932252;29;20584;-77
2023/04/25 06:43:22;;;;;;;14.38;4.45;;;13.40;62.10;;;;;;4956446;28;20042;-77
2023/04/25 06:46:02;;;;;;;8.35;4.07;;;13.70;61.90;;;;;;4925256;28;20051;-78
2023/04/25 06:48:30;;;;;;;7.45;3.38;;;14.00;61.60;;;;;;4935095;28;20044;-78
2023/04/25 06:50:58;;;;;;;8.77;4.20;;;14.30;61.40;;;;;;4938318;28;20019;-78
2023/04/25 06:53:25;;;;;;;6.60;3.35;;;14.70;61.20;;;;;;4935692;28;20036;-77
2023/04/25 06:55:57;;;;;;;6.13;3.45;;;15.00;60.90;;;;;;4935379;28;20369;-76
2023/04/25 06:58:26;;;;;;;7.38;3.53;;;15.40;60.70;;;;;;4921065;29;20087;-77
2023/04/25 07:01:18;;;;;;;6.05;3.50;;;15.70;60.10;;;;;;4935588;28;20059;-77
2023/04/25 07:03:44;;;;;;;9.70;3.67;;;16.20;59.70;;;;;;4938650;28;20553;-77
2023/04/25 07:06:16;;;;;;;9.05;3.72;;;16.50;59.00;;;;;;4938814;28;20032;-77
2023/04/25 07:08:42;;;;;;;5.63;3.05;;;17.00;58.50;;;;;;4939404;28;20054;-78
2023/04/25 07:11:08;;;;;;;7.00;3.50;;;17.30;57.70;;;;;;4937156;28;20027;-79
2023/04/25 07:13:36;;;;;;;6.00;3.72;;;17.70;57.10;;;;;;4933628;28;20036;-79
2023/04/25 07:16:02;;;;;;;7.53;3.60;;;18.10;56.40;;;;;;4937803;28;20038;-78
2023/04/25 07:18:30;;;;;;;6.22;3.20;;;18.40;55.60;;;;;;4933075;28;20049;-78
2023/04/25 07:20:56;;;;;;;7.47;3.28;;;18.70;55.00;;;;;;4934264;28;20231;-77
2023/04/25 07:23:23;;;;;;;5.18;3.50;;;19.00;54.50;;;;;;4939054;28;20031;-78
2023/04/25 07:25:50;;;;;;;11.30;3.92;;;19.20;54.10;;;;;;4938490;28;20463;-78
2023/04/25 07:28:20;;;;;;;6.25;3.67;;;19.30;53.60;;;;;;4936573;28;20035;-77
2023/04/25 07:30:47;;;;;;;4.55;3.30;;;19.40;53.40;;;;;;4934061;28;20475;-77
2023/04/25 07:33:13;;;;;;;7.90;4.05;;;19.40;53.10;;;;;;4942058;28;20041;-77
2023/04/25 07:35:39;;;;;;;7.97;3.33;;;19.40;52.70;;;;;;4935893;29;20221;-77
2023/04/25 07:38:06;;;;;;;7.10;3.70;;;19.40;53.10;;;;;;4937410;28;20074;-78
2023/04/25 07:40:33;;;;;;;7.35;3.28;;;19.20;51.90;;;;;;4937674;29;20036;-78
2023/04/25 07:43:04;;;;;;;6.78;4.10;;;19.10;51.40;;;;;;4938266;28;20051;-79
2023/04/25 07:45:47;;;;;;;5.57;3.30;;;19.00;51.30;;;;;;4939528;28;20035;-78
2023/04/25 07:48:18;;;;;;;5.30;3.13;;;18.80;51.00;;;;;;4937694;28;20374;-79
2023/04/25 07:50:45;;;;;;;9.13;3.63;;;18.70;50.50;;;;;;4940061;28;20047;-78
2023/04/25 07:53:11;;;;;;;4.93;3.42;;;18.50;50.10;;;;;;4936887;28;20334;-78
2023/04/25 07:55:45;;;;;;;11.45;4.70;;;18.40;49.90;;;;;;4931793;29;20068;-81
2023/04/25 07:58:15;;;;;;;8.10;3.13;;;18.20;49.80;;;;;;4930474;28;20042;-78
2023/04/25 08:00:43;;;;;;;9.10;4.13;;;18.00;49.60;;;;;;4933268;28;20848;-77
2023/04/25 08:03:29;;;;;;;7.30;3.20;;;17.80;49.30;;;;;;4939483;28;20039;-76
2023/04/25 08:05:56;;;;;;;7.60;3.60;;;17.70;49.10;;;;;;4946826;28;20081;-76
2023/04/25 08:08:23;;;;;;;6.50;3.25;;;17.70;49.60;;;;;;4935880;28;20039;-76
2023/04/25 08:10:50;;;;;;;5.28;2.78;;;17.60;48.70;;;;;;4935846;29;20089;-77
2023/04/25 08:13:16;;;;;;;6.07;2.78;;;17.50;48.50;;;;;;4922386;28;20050;-77
2023/04/25 08:15:42;;;;;;;6.78;2.58;;;17.40;48.40;;;;;;4931348;29;20089;-81
2023/04/25 08:18:09;;;;;;;7.75;2.75;;;17.30;48.10;;;;;;4933670;28;20043;-78
2023/04/25 08:20:35;;;;;;;8.15;3.42;;;17.10;47.80;;;;;;4930772;28;20031;-78
2023/04/25 08:23:04;;;;;;;7.65;2.20;;;16.90;47.50;;;;;;4931130;28;20498;-78
2023/04/25 08:26:06;;;;;;;7.65;2.72;;;16.70;47.40;;;;;;4952617;28;20058;-77
2023/04/25 08:28:36;;;;;;;6.30;2.47;;;16.40;47.20;;;;;;4925484;28;20047;-78
2023/04/25 08:31:02;;;;;;;9.57;2.85;;;16.20;47.10;;;;;;4925492;29;20035;-77
2023/04/25 08:33:34;;;;;;;7.18;2.38;;;16.00;46.90;;;;;;4927708;28;20141;-79
2023/04/25 08:36:10;;;;;;;5.07;2.17;;;15.90;46.80;;;;;;4933003;29;20066;-77
2023/04/25 08:38:37;;;;;;;4.82;1.85;;;15.70;46.70;;;;;;4924602;28;20039;-76
2023/04/25 08:41:06;;;;;;;5.07;1.92;;;15.60;46.60;;;;;;4935078;28;20082;-77
2023/04/25 08:43:34;;;;;;;4.95;2.70;;;15.40;46.40;;;;;;4937767;28;20043;-77
2023/04/25 08:46:01;;;;;;;5.07;2.08;;;15.40;46.40;;;;;;4937494;28;20554;-77
2023/04/25 08:48:40;;;;;;;7.07;2.85;;;15.30;46.30;;;;;;4931213;28;20066;-77
2023/04/25 08:51:08;;;;;;;7.03;2.35;;;15.20;46.20;;;;;;4927836;28;20023;-77
2023/04/25 08:53:34;;;;;;;7.80;2.38;;;15.20;46.20;;;;;;4931540;28;20038;-78
2023/04/25 08:56:05;;;;;;;4.40;2.33;;;15.10;46.10;;;;;;4934607;28;20165;-78
2023/04/25 08:58:36;;;;;;;4.00;1.70;;;15.00;45.70;;;;;;4932659;28;20037;-78
2023/04/25 09:01:03;;;;;;;3.92;1.70;;;15.00;45.70;;;;;;4921429;29;20046;-77
2023/04/25 09:03:36;;;;;;;5.07;2.22;;;15.00;45.60;;;;;;4935434;28;20082;-76
2023/04/25 09:06:03;;;;;;;4.15;2.13;;;15.00;45.40;;;;;;4933632;28;20151;-76
2023/04/25 09:08:29;;;;;;;2.65;1.38;;;15.00;45.30;;;;;;4935965;28;20043;-76
2023/04/25 09:10:56;;;;;;;5.72;1.83;;;15.00;45.20;;;;;;4940448;28;20044;-77
2023/04/25 09:13:27;;;;;;;3.40;1.95;;;15.00;45.10;;;;;;4936402;28;20043;-76
2023/04/25 09:16:17;;;;;;;3.80;1.67;;;14.90;44.80;;;;;;4937691;28;20212;-76
2023/04/25 09:19:01;;;;;;;3.75;1.48;;;15.00;44.90;;;;;;4941193;28;20430;-77
2023/04/25 09:21:27;;;;;;;3.58;2.13;;;15.00;44.80;;;;;;4935016;28;20073;-77
2023/04/25 09:23:53;;;;;;;4.43;1.33;;;15.00;44.70;;;;;;4933917;28;20036;-77
2023/04/25 09:26:21;;;;;;;5.60;2.15;;;15.00;44.50;;;;;;4957748;28;20034;-76
2023/04/25 09:28:48;;;;;;;5.28;1.52;;;15.10;44.60;;;;;;4939871;28;20023;-76
2023/04/25 09:31:24;;;;;;;4.38;1.65;;;15.10;44.50;;;;;;4932935;28;20512;-77
2023/04/25 09:33:59;;;;;;;4.43;1.67;;;15.10;44.10;;;;;;4928661;29;20032;-79
2023/04/25 09:36:27;;;;;;;4.13;1.63;;;15.10;43.90;;;;;;4940283;29;20109;-78
2023/04/25 09:39:20;;;;;;;5.70;1.40;;;15.20;44.20;;;;;;4927934;28;20164;-77
2023/04/25 09:41:54;;;;;;;3.25;1.90;;;15.20;44.30;;;;;;4940933;28;20055;-77
2023/04/25 09:44:24;;;;;;;3.55;1.67;;;15.30;44.20;;;;;;4935205;28;20063;-78
2023/04/25 09:46:54;;;;;;;6.28;1.70;;;15.30;43.90;;;;;;4948157;28;20400;-78
2023/04/25 09:49:25;;;;;;;6.45;2.20;;;15.40;43.90;;;;;;4938623;28;20034;-77
2023/04/25 09:52:03;;;;;;;2.25;1.40;;;15.40;43.80;;;;;;4938775;28;20065;-77
2023/04/25 09:54:39;;;;;;;5.80;1.73;;;15.40;43.70;;;;;;4938492;28;20032;-77
2023/04/25 09:57:13;;;;;;;2.72;1.48;;;15.40;43.60;;;;;;4937788;28;20218;-77
2023/04/25 09:59:44;;;;;;;2.40;1.40;;;15.50;43.50;;;;;;4938301;28;20094;-77
2023/04/25 10:02:11;;;;;;;3.90;1.58;;;15.50;43.40;;;;;;4935863;28;20447;-78
2023/04/25 10:04:41;;;;;;;3.13;1.73;;;15.50;43.30;;;;;;4937847;28;20070;-77
2023/04/25 10:07:29;;;;;;;3.15;1.60;;;15.50;43.20;;;;;;4939162;28;20038;-78
2023/04/25 10:10:02;;;;;;;3.70;1.77;;;15.60;43.10;;;;;;4938046;28;20126;-78
2023/04/25 10:12:30;;;;;;;4.82;2.03;;;15.50;42.80;;;;;;4940222;28;20090;-78
2023/04/25 10:14:58;;;;;;;4.90;2.63;;;15.60;42.80;;;;;;4935059;28;20427;-80
2023/04/25 10:17:26;;;;;;;3.03;1.55;;;15.60;42.60;;;;;;4942512;28;20073;-80
2023/04/25 10:19:53;;;;;;;3.90;1.83;;;15.70;42.70;;;;;;4935699;28;20257;-78
2023/04/25 10:22:41;;;;;;;2.55;1.33;;;15.60;42.30;;;;;;4935484;28;20151;-79
2023/04/25 10:25:08;;;;;;;1.80;1.20;;;15.70;42.30;;;;;;4936958;28;20282;-79
2023/04/25 10:27:35;;;;;;;4.25;1.70;;;15.70;42.50;;;;;;4936945;28;20231;-79
2023/04/25 10:30:10;;;;;;;7.00;2.05;;;15.80;42.60;;;;;;4934296;29;20098;-78
2023/04/25 10:32:37;;;;;;;4.10;1.70;;;15.80;43.00;;;;;;4933257;28;20470;-78
2023/04/25 10:35:24;;;;;;;3.65;1.83;;;15.80;42.30;;;;;;4937094;28;20041;-80
2023/04/25 10:38:04;;;;;;;3.00;1.40;;;15.90;42.20;;;;;;4935945;28;20043;-78
2023/04/25 10:40:31;;;;;;;2.33;0.98;;;15.90;42.10;;;;;;4933891;29;20594;-78
2023/04/25 10:43:29;;;;;;;3.17;1.38;;;16.10;42.50;;;;;;4928443;29;20097;-78
2023/04/25 10:45:55;;;;;;;1.98;1.35;;;16.20;42.20;;;;;;4934802;29;20043;-80
2023/04/25 10:48:28;;;;;;;4.93;1.70;;;16.30;42.40;;;;;;4945754;28;20067;-79
2023/04/25 10:51:22;;;;;;;5.75;1.50;;;16.30;42.10;;;;;;4915644;29;20059;-78
2023/04/25 10:54:04;;;;;;;2.90;1.70;;;16.40;42.30;;;;;;4931160;28;20578;-78
2023/04/25 10:56:48;;;;;;;4.15;1.50;;;16.50;42.50;;;;;;4942288;28;20046;-79
2023/04/25 10:59:17;;;;;;;3.05;1.20;;;16.60;42.60;;;;;;4933274;28;20407;-78
2023/04/25 11:01:45;;;;;;;2.63;1.33;;;16.70;42.70;;;;;;4941476;29;20088;-79
2023/04/25 11:04:45;;;;;;;3.65;1.85;;;16.90;42.90;;;;;;4946829;28;20066;-78
2023/04/25 11:07:20;;;;;;;4.68;2.00;;;17.00;42.50;;;;;;4951446;28;20047;-79
2023/04/25 11:10:06;;;;;;;2.95;1.48;;;17.20;42.80;;;;;;4948367;28;20423;-77
2023/04/25 11:12:32;;;;;;;4.22;1.80;;;17.20;42.70;;;;;;4934180;29;20035;-77
2023/04/25 11:15:08;;;;;;;3.15;1.58;;;17.20;42.50;;;;;;4937772;28;20035;-77
2023/04/25 11:17:34;;;;;;;1.98;1.10;;;17.30;42.50;;;;;;4910801;29;20032;-77
2023/04/25 11:20:00;;;;;;;2.35;1.15;;;17.30;42.40;;;;;;4938148;29;20586;-77
2023/04/25 11:22:27;;;;;;;3.60;1.55;;;17.50;42.50;;;;;;4930178;29;20051;-77
2023/04/25 11:24:53;;;;;;;3.17;1.02;;;17.50;42.20;;;;;;4938692;28;20034;-78
2023/04/25 11:27:21;;;;;;;2.05;1.05;;;17.50;42.20;;;;;;4952483;29;20067;-76
2023/04/25 11:29:49;;;;;;;2.80;1.20;;;17.50;42.10;;;;;;4950351;28;20239;-77
2023/04/25 11:32:17;;;;;;;2.83;1.30;;;17.50;42.00;;;;;;4959249;28;20050;-76
2023/04/25 11:34:45;;;;;;;2.00;1.38;;;17.60;42.00;;;;;;4956366;28;20011;-77
2023/04/25 11:37:13;;;;;;;2.72;1.17;;;17.70;41.80;;;;;;4958328;28;20090;-77
2023/04/25 11:39:44;;;;;;;2.50;1.30;;;17.90;41.90;;;;;;4942257;28;20125;-77
2023/04/25 11:42:10;;;;;;;2.72;1.30;;;17.90;41.70;;;;;;4936405;28;20129;-77
2023/04/25 11:44:39;;;;;;;2.75;1.00;;;18.00;41.80;;;;;;4941313;28;20118;-76
2023/04/25 11:47:05;;;;;;;1.92;1.15;;;18.00;41.50;;;;;;4943526;28;20051;-77
2023/04/25 11:49:32;;;;;;;4.05;1.58;;;18.00;41.60;;;;;;4941103;28;20550;-79
2023/04/25 11:51:58;;;;;;;2.53;1.10;;;18.00;41.60;;;;;;4942619;28;20089;-77
2023/04/25 11:54:24;;;;;;;2.55;1.23;;;18.00;41.40;;;;;;4932207;28;20109;-77
2023/04/25 11:56:50;;;;;;;2.55;1.13;;;18.00;41.30;;;;;;4935943;28;20039;-77
2023/04/25 11:59:16;;;;;;;3.05;1.23;;;18.00;41.50;;;;;;4932717;28;20419;-77
2023/04/25 12:01:50;;;;;;;2.42;1.08;;;18.10;42.40;;;;;;4940474;28;20043;-76
2023/04/25 12:04:24;;;;;;;1.67;1.00;;;18.30;43.40;;;;;;4932621;28;20032;-76
2023/04/25 12:06:52;;;;;;;2.95;1.02;;;18.40;43.80;;;;;;4937763;28;20106;-76
2023/04/25 12:09:28;;;;;;;1.60;0.82;;;18.70;44.30;;;;;;4941112;28;20031;-77
2023/04/25 12:11:55;;;;;;;4.07;1.40;;;18.80;44.60;;;;;;4938050;28;20039;-77
2023/04/25 12:14:32;;;;;;;1.88;1.30;;;18.80;44.60;;;;;;4939686;28;20031;-77
2023/04/25 12:17:00;;;;;;;2.40;0.73;;;18.90;44.90;;;;;;4934442;28;20028;-78
2023/04/25 12:19:36;;;;;;;2.33;0.80;;;18.90;44.90;;;;;;4933712;28;20126;-76
2023/04/25 12:22:19;;;;;;;1.73;1.00;;;19.00;45.20;;;;;;4935548;28;20039;-76
2023/04/25 12:24:46;;;;;;;1.83;1.23;;;19.20;45.50;;;;;;4934892;28;20392;-76
2023/04/25 12:27:19;;;;;;;2.45;1.15;;;19.30;45.50;;;;;;4932703;28;20274;-76
2023/04/25 12:29:53;;;;;;;1.45;0.98;;;19.60;45.60;;;;;;4934444;28;20098;-76
2023/04/25 12:32:19;;;;;;;0.88;0.80;;;20.00;45.40;;;;;;4936673;28;20071;-76
2023/04/25 12:34:45;;;;;;;3.80;1.15;;;20.30;45.50;;;;;;4934183;28;20382;-76
2023/04/25 12:37:11;;;;;;;2.58;1.10;;;20.30;45.20;;;;;;4934675;29;20034;-76
2023/04/25 12:39:37;;;;;;;2.92;1.13;;;20.30;45.10;;;;;;4934026;28;20035;-77
2023/04/25 12:42:03;;;;;;;1.75;0.90;;;20.40;45.50;;;;;;4933342;28;20558;-77
2023/04/25 12:44:29;;;;;;;1.50;0.90;;;20.50;45.60;;;;;;4934541;28;20035;-77
2023/04/25 12:46:55;;;;;;;2.33;0.85;;;20.70;45.80;;;;;;4932293;28;20137;-77
2023/04/25 12:49:22;;;;;;;3.17;0.90;;;21.10;46.10;;;;;;4939185;28;20473;-77
2023/04/25 12:51:47;;;;;;;1.92;1.40;;;21.40;46.10;;;;;;4937410;29;20114;-77
2023/04/25 12:54:14;;;;;;;2.70;1.10;;;21.60;45.70;;;;;;4933476;28;20515;-76
2023/04/25 12:56:41;;;;;;;2.60;1.02;;;21.60;45.20;;;;;;4935009;28;20522;-76
2023/04/25 12:59:07;;;;;;;2.88;1.63;;;21.50;44.70;;;;;;4933770;28;20039;-77
2023/04/25 13:01:33;;;;;;;1.60;1.20;;;21.50;44.60;;;;;;4950167;28;20050;-77
2023/04/25 13:03:59;;;;;;;2.88;1.50;;;21.40;44.30;;;;;;4933357;28;20450;-78
2023/04/25 13:06:26;;;;;;;3.25;1.08;;;21.20;44.70;;;;;;4923957;29;20137;-77